SHU4545 RJBE-UHWW
Flight info
| Callsign | SHU4545 |
|---|---|
| Flight time | N/A |
| Altitude | 36000 |
| Route | YME Y18 MIHOU Y332 IGRAS/N0438F370 Z56 SABET B332 PALDU Z56 KANSU/K0809F360 G711 RIVAT G705 AGBIS B356 KESAN KESAN2N |
| Aircraft | A319/M-SDE3FGHIRWY/LB1 |
Departure
| Time | 2026-04-26 11:44 |
|---|---|
| Airport | Kobe Airport (RJBE) |
Arrival
| Time | N/A |
|---|---|
| Airport | Vladivostok International Airport (UHWW) |
| Time | Latitude | Longitude | Altitude | Speed | Heading |
|---|---|---|---|---|---|
| 2026-04-26 11:12 | 34.63599 | 135.22788 | 27 ft | 0 kts | 354° |
| 2026-04-26 11:35 | 34.63569 | 135.22790 | 27 ft | 4 kts | 354° |
| 2026-04-26 11:35 | 34.63542 | 135.22793 | 27 ft | 4 kts | 354° |
| 2026-04-26 11:35 | 34.63528 | 135.22794 | 27 ft | 2 kts | 355° |
| 2026-04-26 11:36 | 34.63504 | 135.22800 | 27 ft | 4 kts | 336° |
| 2026-04-26 11:36 | 34.63477 | 135.22826 | 27 ft | 4 kts | 292° |
| 2026-04-26 11:36 | 34.63473 | 135.22848 | 27 ft | 0 kts | 264° |
| 2026-04-26 11:39 | 34.63473 | 135.22847 | 27 ft | 1 kts | 264° |
| 2026-04-26 11:39 | 34.63471 | 135.22823 | 27 ft | 7 kts | 264° |
| 2026-04-26 11:39 | 34.63460 | 135.22681 | 27 ft | 16 kts | 264° |
| 2026-04-26 11:39 | 34.63449 | 135.22546 | 27 ft | 16 kts | 264° |
| 2026-04-26 11:40 | 34.63439 | 135.22410 | 27 ft | 16 kts | 264° |
| 2026-04-26 11:40 | 34.63431 | 135.22320 | 27 ft | 16 kts | 264° |
| 2026-04-26 11:40 | 34.63420 | 135.22185 | 27 ft | 16 kts | 264° |
| 2026-04-26 11:40 | 34.63407 | 135.22005 | 27 ft | 16 kts | 265° |
| 2026-04-26 11:41 | 34.63398 | 135.21869 | 27 ft | 16 kts | 265° |
| 2026-04-26 11:42 | 34.63277 | 135.21039 | 28 ft | 14 kts | 182° |
| 2026-04-26 11:43 | 34.63198 | 135.21053 | 31 ft | 10 kts | 161° |
| 2026-04-26 11:43 | 34.63173 | 135.21142 | 32 ft | 16 kts | 83° |
| 2026-04-26 11:43 | 34.63193 | 135.21413 | 29 ft | 64 kts | 85° |
| 2026-04-26 11:43 | 34.63289 | 135.22588 | 32 ft | 143 kts | 84° |
| 2026-04-26 11:44 | 34.63357 | 135.23454 | 129 ft | 163 kts | 84° |
| 2026-04-26 11:44 | 34.63444 | 135.24831 | 685 ft | 164 kts | 86° |
| 2026-04-26 11:44 | 34.63066 | 135.26120 | 1277 ft | 172 kts | 133° |
| 2026-04-26 11:44 | 34.61926 | 135.26596 | 1810 ft | 187 kts | 182° |
| 2026-04-26 11:45 | 34.60712 | 135.25850 | 2071 ft | 215 kts | 228° |
| 2026-04-26 11:45 | 34.59804 | 135.23500 | 2462 ft | 251 kts | 252° |
| 2026-04-26 11:45 | 34.59495 | 135.22071 | 2765 ft | 266 kts | 256° |
| 2026-04-26 11:45 | 34.59088 | 135.19844 | 3543 ft | 273 kts | 256° |
| 2026-04-26 11:46 | 34.58682 | 135.17583 | 4443 ft | 276 kts | 256° |
| 2026-04-26 11:46 | 34.58257 | 135.15333 | 5333 ft | 279 kts | 255° |
| 2026-04-26 11:46 | 34.57796 | 135.13037 | 6204 ft | 282 kts | 253° |
| 2026-04-26 11:46 | 34.57296 | 135.10728 | 7052 ft | 284 kts | 250° |
| 2026-04-26 11:47 | 34.56639 | 135.08451 | 7892 ft | 287 kts | 247° |
| 2026-04-26 11:47 | 34.56046 | 135.06119 | 8700 ft | 293 kts | 257° |
| 2026-04-26 11:47 | 34.55901 | 135.03634 | 9482 ft | 300 kts | 269° |
| 2026-04-26 11:47 | 34.55965 | 135.01100 | 10293 ft | 302 kts | 269° |
| 2026-04-26 11:48 | 34.56037 | 134.98457 | 10605 ft | 325 kts | 269° |
| 2026-04-26 11:48 | 34.56263 | 134.95708 | 11092 ft | 339 kts | 282° |
| 2026-04-26 11:48 | 34.57201 | 134.93057 | 11807 ft | 347 kts | 301° |
| 2026-04-26 11:48 | 34.58844 | 134.90885 | 12556 ft | 354 kts | 321° |
| 2026-04-26 11:49 | 34.61035 | 134.89489 | 13261 ft | 361 kts | 341° |
| 2026-04-26 11:49 | 34.63506 | 134.88831 | 13934 ft | 366 kts | 348° |
| 2026-04-26 11:49 | 34.66019 | 134.88255 | 14580 ft | 369 kts | 347° |
| 2026-04-26 11:49 | 34.68545 | 134.87604 | 15172 ft | 373 kts | 341° |
| 2026-04-26 11:50 | 34.70958 | 134.86444 | 15779 ft | 374 kts | 329° |
| 2026-04-26 11:50 | 34.73160 | 134.84836 | 16380 ft | 376 kts | 324° |
| 2026-04-26 11:50 | 34.75380 | 134.83134 | 16953 ft | 379 kts | 324° |
| 2026-04-26 11:50 | 34.77624 | 134.81415 | 17535 ft | 383 kts | 324° |
| 2026-04-26 11:51 | 34.79888 | 134.79679 | 18099 ft | 387 kts | 324° |
| 2026-04-26 11:51 | 34.82173 | 134.77926 | 18664 ft | 390 kts | 324° |
| 2026-04-26 11:51 | 34.84475 | 134.76157 | 19234 ft | 393 kts | 323° |
| 2026-04-26 11:51 | 34.86790 | 134.74372 | 19793 ft | 395 kts | 322° |
| 2026-04-26 11:52 | 34.88982 | 134.72359 | 20331 ft | 395 kts | 316° |
| 2026-04-26 11:52 | 34.91104 | 134.70280 | 20875 ft | 398 kts | 316° |
| 2026-04-26 11:52 | 34.93419 | 134.67970 | 21461 ft | 400 kts | 315° |
| 2026-04-26 11:52 | 35.01436 | 134.59907 | 23328 ft | 409 kts | 315° |
| 2026-04-26 11:53 | 35.10343 | 134.50998 | 25081 ft | 419 kts | 314° |
| 2026-04-26 11:53 | 35.19432 | 134.41867 | 26666 ft | 426 kts | 313° |
| 2026-04-26 11:53 | 35.28661 | 134.32578 | 28151 ft | 433 kts | 312° |